Time;durP1;ratioP1;P1;durP2;ratioP2;P2;SDS_P1;SDS_P2;PMS_P1;PMS_P2;Temp;Humidity;BMP_temperature;BMP_pressure;BME280_temperature;BME280_humidity;BME280_pressure;Samples;Min_cycle;Max_cycle;Signal;HPM_P1;HPM_P2
2023/12/31 00:01:34;;;;;;;5.38;2.67;;;;;;;;;;5073212;28;20045;-71
2023/12/31 00:04:00;;;;;;;6.90;2.15;;;;;;;;;;5073696;28;20133;-71
2023/12/31 00:06:26;;;;;;;5.28;2.10;;;;;;;;;;5074606;28;20040;-71
2023/12/31 00:08:52;;;;;;;3.13;1.73;;;;;;;;;;5073080;28;20090;-71
2023/12/31 00:11:18;;;;;;;3.85;2.00;;;;;;;;;;5074449;28;20044;-71
2023/12/31 00:13:44;;;;;;;3.85;1.83;;;;;;;;;;5074434;28;20063;-71
2023/12/31 00:16:11;;;;;;;6.00;2.42;;;;;;;;;;5073205;28;20066;-71
2023/12/31 00:18:37;;;;;;;3.75;1.70;;;;;;;;;;5072889;28;20044;-71
2023/12/31 00:21:03;;;;;;;4.65;1.95;;;;;;;;;;5073034;28;20046;-71
2023/12/31 00:23:29;;;;;;;3.85;1.85;;;;;;;;;;5072748;28;20045;-71
2023/12/31 00:25:55;;;;;;;2.78;1.50;;;;;;;;;;5072705;28;20040;-71
2023/12/31 00:28:21;;;;;;;3.30;1.75;;;;;;;;;;5072939;28;20108;-71
2023/12/31 00:30:47;;;;;;;5.95;2.60;;;;;;;;;;5072528;28;20433;-71
2023/12/31 00:33:13;;;;;;;4.50;1.90;;;;;;;;;;5073824;28;20075;-71
2023/12/31 00:35:39;;;;;;;4.55;1.98;;;;;;;;;;5072572;28;20048;-71
2023/12/31 00:38:05;;;;;;;5.03;1.92;;;;;;;;;;5074000;28;20134;-71
2023/12/31 00:40:31;;;;;;;8.02;2.35;;;;;;;;;;5072470;28;20520;-71
2023/12/31 00:42:57;;;;;;;4.28;2.10;;;;;;;;;;5072343;28;20051;-71
2023/12/31 00:45:23;;;;;;;5.10;2.20;;;;;;;;;;5055763;28;20052;-71
2023/12/31 00:47:49;;;;;;;4.93;2.10;;;;;;;;;;5073538;28;20040;-71
2023/12/31 00:50:15;;;;;;;5.13;1.88;;;;;;;;;;5073426;28;20432;-71
2023/12/31 00:52:41;;;;;;;4.57;1.92;;;;;;;;;;5072476;28;20060;-71
2023/12/31 00:55:08;;;;;;;5.65;2.05;;;;;;;;;;5072184;28;20374;-71
2023/12/31 00:57:33;;;;;;;5.05;2.30;;;;;;;;;;5072181;28;20047;-71
2023/12/31 00:59:59;;;;;;;4.05;2.47;;;;;;;;;;5072158;28;20040;-71
2023/12/31 01:02:27;;;;;;;3.33;1.70;;;;;;;;;;5071964;28;20036;-71
2023/12/31 01:04:53;;;;;;;3.83;1.70;;;;;;;;;;5072114;28;20044;-71
2023/12/31 01:07:19;;;;;;;4.70;1.90;;;;;;;;;;5072323;28;20067;-71
2023/12/31 01:09:45;;;;;;;3.75;2.10;;;;;;;;;;5072050;28;20045;-71
2023/12/31 01:12:11;;;;;;;3.38;1.48;;;;;;;;;;5071903;28;20037;-71
2023/12/31 01:14:37;;;;;;;4.65;1.90;;;;;;;;;;5072931;28;20070;-71
2023/12/31 01:17:03;;;;;;;3.67;1.80;;;;;;;;;;5073334;28;20146;-71
2023/12/31 01:19:29;;;;;;;3.00;1.80;;;;;;;;;;5071950;28;20079;-71
2023/12/31 01:21:55;;;;;;;2.85;1.45;;;;;;;;;;5071851;28;20095;-71
2023/12/31 01:24:21;;;;;;;3.10;1.48;;;;;;;;;;5072196;28;20048;-71
2023/12/31 01:26:47;;;;;;;2.97;1.67;;;;;;;;;;5071847;28;20044;-71
2023/12/31 01:29:14;;;;;;;3.40;1.70;;;;;;;;;;5073031;28;20047;-71
2023/12/31 01:31:40;;;;;;;3.03;1.50;;;;;;;;;;5055100;28;20076;-71
2023/12/31 01:34:06;;;;;;;3.05;1.60;;;;;;;;;;5071719;28;20574;-71
2023/12/31 01:36:32;;;;;;;4.32;1.75;;;;;;;;;;5071732;28;20068;-71
2023/12/31 01:38:58;;;;;;;4.22;1.70;;;;;;;;;;5073222;28;20044;-71
2023/12/31 01:41:24;;;;;;;4.35;1.60;;;;;;;;;;5073218;28;20036;-71
2023/12/31 01:43:50;;;;;;;5.03;1.70;;;;;;;;;;5072822;28;20101;-71
2023/12/31 01:46:29;;;;;;;2.20;1.52;;;;;;;;;;5071630;28;20071;-71
2023/12/31 01:48:56;;;;;;;4.03;1.85;;;;;;;;;;5071636;28;20044;-71
2023/12/31 01:51:24;;;;;;;3.60;1.70;;;;;;;;;;5071652;28;20041;-71
2023/12/31 01:53:50;;;;;;;3.67;1.60;;;;;;;;;;5071509;28;20045;-71
2023/12/31 01:56:16;;;;;;;4.40;1.60;;;;;;;;;;5071603;28;20051;-71
2023/12/31 01:58:43;;;;;;;2.70;1.25;;;;;;;;;;5071785;28;20533;-71
2023/12/31 02:01:10;;;;;;;3.50;1.65;;;;;;;;;;5071775;28;20041;-71
2023/12/31 02:03:36;;;;;;;7.45;2.10;;;;;;;;;;5072651;28;20072;-71
2023/12/31 02:06:02;;;;;;;5.45;1.63;;;;;;;;;;5072957;28;20076;-71
2023/12/31 02:08:28;;;;;;;3.75;1.80;;;;;;;;;;5072973;28;20043;-71
2023/12/31 02:10:54;;;;;;;3.40;1.38;;;;;;;;;;5071377;28;20047;-71
2023/12/31 02:13:20;;;;;;;3.35;1.52;;;;;;;;;;5071311;28;20048;-71
2023/12/31 02:15:46;;;;;;;3.40;1.58;;;;;;;;;;5071614;28;20033;-72
2023/12/31 02:18:12;;;;;;;3.13;1.58;;;;;;;;;;5054640;28;20516;-71
2023/12/31 02:20:38;;;;;;;3.30;1.60;;;;;;;;;;5071378;28;20048;-71
2023/12/31 02:23:05;;;;;;;3.70;1.60;;;;;;;;;;5071219;28;20040;-71
2023/12/31 02:25:34;;;;;;;6.72;1.98;;;;;;;;;;5071239;28;20460;-71
2023/12/31 02:27:59;;;;;;;3.38;1.70;;;;;;;;;;5076189;28;20044;-71
2023/12/31 02:30:26;;;;;;;4.82;1.80;;;;;;;;;;5075106;28;20423;-71
2023/12/31 02:32:53;;;;;;;4.53;1.75;;;;;;;;;;5076348;28;20068;-71
2023/12/31 02:35:19;;;;;;;3.47;1.67;;;;;;;;;;5074837;28;20044;-71
2023/12/31 02:37:44;;;;;;;5.72;1.88;;;;;;;;;;5074847;28;20036;-71
2023/12/31 02:40:11;;;;;;;4.47;1.77;;;;;;;;;;5074802;28;20138;-71
2023/12/31 02:42:37;;;;;;;4.78;1.30;;;;;;;;;;5076136;28;20079;-71
2023/12/31 02:45:03;;;;;;;3.97;1.50;;;;;;;;;;5076201;28;20040;-71
2023/12/31 02:47:29;;;;;;;3.42;1.65;;;;;;;;;;5074857;28;20040;-71
2023/12/31 02:49:55;;;;;;;4.45;1.60;;;;;;;;;;5074898;28;20440;-71
2023/12/31 02:52:21;;;;;;;3.35;1.50;;;;;;;;;;5075982;28;20500;-71
2023/12/31 02:54:47;;;;;;;4.10;1.80;;;;;;;;;;5075727;28;20048;-71
2023/12/31 02:57:13;;;;;;;3.22;1.58;;;;;;;;;;5074460;28;20513;-71
2023/12/31 02:59:39;;;;;;;3.63;1.67;;;;;;;;;;5074413;28;20501;-71
2023/12/31 03:02:05;;;;;;;4.57;1.60;;;;;;;;;;5074111;28;20043;-71
2023/12/31 03:04:31;;;;;;;4.45;2.00;;;;;;;;;;5074373;28;20043;-71
2023/12/31 03:06:57;;;;;;;4.72;1.67;;;;;;;;;;5074328;28;20044;-71
2023/12/31 03:09:23;;;;;;;2.63;1.40;;;;;;;;;;5057588;28;20036;-71
2023/12/31 03:11:51;;;;;;;3.85;1.92;;;;;;;;;;5074129;28;20129;-71
2023/12/31 03:14:17;;;;;;;4.25;1.40;;;;;;;;;;5074424;28;20059;-71
2023/12/31 03:16:47;;;;;;;3.25;1.38;;;;;;;;;;5075640;28;20112;-71
2023/12/31 03:19:16;;;;;;;2.58;1.20;;;;;;;;;;5075600;28;20043;-72
2023/12/31 03:21:42;;;;;;;4.28;1.48;;;;;;;;;;5075512;28;20048;-71
2023/12/31 03:24:08;;;;;;;4.00;1.52;;;;;;;;;;5075435;28;20044;-71
2023/12/31 03:26:35;;;;;;;3.90;1.33;;;;;;;;;;5075468;28;20076;-71
2023/12/31 03:29:01;;;;;;;2.50;1.23;;;;;;;;;;5073879;28;20483;-71
2023/12/31 03:31:27;;;;;;;3.13;1.27;;;;;;;;;;5073746;28;20044;-71
2023/12/31 03:33:54;;;;;;;2.88;0.90;;;;;;;;;;5073988;28;20497;-71
2023/12/31 03:36:24;;;;;;;4.32;1.05;;;;;;;;;;5073980;28;20037;-71
2023/12/31 03:38:50;;;;;;;2.53;1.40;;;;;;;;;;5073228;28;20170;-71
2023/12/31 03:41:16;;;;;;;2.65;1.30;;;;;;;;;;5073658;28;20040;-71
2023/12/31 03:43:42;;;;;;;2.53;1.05;;;;;;;;;;5073771;28;20047;-71
2023/12/31 03:46:08;;;;;;;2.00;1.20;;;;;;;;;;5073539;28;20500;-71
2023/12/31 03:48:34;;;;;;;2.30;1.10;;;;;;;;;;5073783;28;20048;-71
2023/12/31 03:51:00;;;;;;;5.88;1.52;;;;;;;;;;5074904;28;20556;-71
2023/12/31 03:53:26;;;;;;;2.40;1.20;;;;;;;;;;5073574;28;20043;-71
2023/12/31 03:55:52;;;;;;;4.28;1.55;;;;;;;;;;5073365;28;20496;-71
2023/12/31 03:58:18;;;;;;;2.15;1.13;;;;;;;;;;5073326;28;20072;-71
2023/12/31 04:00:44;;;;;;;5.60;1.20;;;;;;;;;;5073558;28;20084;-71
2023/12/31 04:03:10;;;;;;;6.57;1.33;;;;;;;;;;5073294;28;20052;-71
2023/12/31 04:05:36;;;;;;;2.20;1.10;;;;;;;;;;5073169;28;20500;-71
2023/12/31 04:08:02;;;;;;;4.80;1.52;;;;;;;;;;5073159;28;20049;-71
2023/12/31 04:10:28;;;;;;;2.47;1.40;;;;;;;;;;5073532;28;20076;-71
2023/12/31 04:12:54;;;;;;;2.50;1.50;;;;;;;;;;5072984;28;20052;-71
2023/12/31 04:15:20;;;;;;;3.17;1.58;;;;;;;;;;5073181;28;20113;-71
2023/12/31 04:17:46;;;;;;;2.78;1.40;;;;;;;;;;5074469;28;20037;-71
2023/12/31 04:20:12;;;;;;;1.80;1.20;;;;;;;;;;5074431;28;20043;-71
2023/12/31 04:22:38;;;;;;;4.38;1.70;;;;;;;;;;5074264;28;20040;-71
2023/12/31 04:25:04;;;;;;;2.65;1.27;;;;;;;;;;5073047;28;20036;-71
2023/12/31 04:27:31;;;;;;;4.28;1.70;;;;;;;;;;5072735;28;20112;-71
2023/12/31 04:29:57;;;;;;;3.97;1.58;;;;;;;;;;5072662;28;20048;-71
2023/12/31 04:32:26;;;;;;;3.50;1.55;;;;;;;;;;5072463;28;20123;-71
2023/12/31 04:34:53;;;;;;;2.63;1.20;;;;;;;;;;5072570;28;20040;-71
2023/12/31 04:37:19;;;;;;;2.88;1.60;;;;;;;;;;5074099;28;20047;-71
2023/12/31 04:39:45;;;;;;;3.15;1.50;;;;;;;;;;5074026;28;20036;-71
2023/12/31 04:42:11;;;;;;;5.07;1.50;;;;;;;;;;5072497;28;20036;-71
2023/12/31 04:44:37;;;;;;;3.42;1.55;;;;;;;;;;5055736;28;20097;-71
2023/12/31 04:47:03;;;;;;;3.78;1.42;;;;;;;;;;5072411;28;20041;-71
2023/12/31 04:49:29;;;;;;;4.40;1.80;;;;;;;;;;5073839;28;20036;-71
2023/12/31 04:51:55;;;;;;;2.50;1.70;;;;;;;;;;5072138;28;20048;-71
2023/12/31 04:54:21;;;;;;;6.18;1.45;;;;;;;;;;5072507;28;20093;-71
2023/12/31 04:56:47;;;;;;;2.97;1.48;;;;;;;;;;5055554;28;20036;-71
2023/12/31 04:59:13;;;;;;;2.88;1.63;;;;;;;;;;5073334;28;20253;-71
2023/12/31 05:01:39;;;;;;;3.90;1.67;;;;;;;;;;5072148;28;20044;-71
2023/12/31 05:04:05;;;;;;;2.95;1.90;;;;;;;;;;5072218;28;20051;-71
2023/12/31 05:06:31;;;;;;;2.97;1.60;;;;;;;;;;5072092;28;20044;-71
2023/12/31 05:08:58;;;;;;;5.03;2.53;;;;;;;;;;5073600;28;20037;-71
2023/12/31 05:11:25;;;;;;;4.07;2.38;;;;;;;;;;5071936;28;20085;-71
2023/12/31 05:13:51;;;;;;;3.38;1.50;;;;;;;;;;5073402;28;20048;-71
2023/12/31 05:16:17;;;;;;;3.05;1.52;;;;;;;;;;5072246;28;20051;-71
2023/12/31 05:18:50;;;;;;;5.70;1.58;;;;;;;;;;5071917;28;20382;-71
2023/12/31 05:21:16;;;;;;;3.47;1.80;;;;;;;;;;5072031;28;20102;-71
2023/12/31 05:23:42;;;;;;;5.07;1.60;;;;;;;;;;5073307;28;20036;-71
2023/12/31 05:26:08;;;;;;;2.88;1.88;;;;;;;;;;5071823;28;20040;-71
2023/12/31 05:28:34;;;;;;;4.10;1.83;;;;;;;;;;5071846;28;20067;-71
2023/12/31 05:31:00;;;;;;;4.13;1.75;;;;;;;;;;5071802;28;20044;-71
2023/12/31 05:33:26;;;;;;;5.53;1.90;;;;;;;;;;5071765;28;20040;-71
2023/12/31 05:35:52;;;;;;;2.78;1.60;;;;;;;;;;5073364;28;20076;-71
2023/12/31 05:38:18;;;;;;;2.92;1.73;;;;;;;;;;5071751;28;20496;-71
2023/12/31 05:40:44;;;;;;;3.72;1.80;;;;;;;;;;5072797;28;20041;-71
2023/12/31 05:43:10;;;;;;;2.53;1.33;;;;;;;;;;5071643;28;20428;-71
2023/12/31 05:45:37;;;;;;;3.72;1.63;;;;;;;;;;5071688;28;20052;-71
2023/12/31 05:48:03;;;;;;;4.75;1.60;;;;;;;;;;5071890;28;20134;-71
2023/12/31 05:50:29;;;;;;;2.65;1.73;;;;;;;;;;5071819;28;20119;-71
2023/12/31 05:52:55;;;;;;;3.00;1.60;;;;;;;;;;5071781;28;20131;-72
2023/12/31 05:55:21;;;;;;;4.35;2.00;;;;;;;;;;5072701;28;20036;-71
2023/12/31 05:57:47;;;;;;;3.45;1.50;;;;;;;;;;5071924;28;20037;-71
2023/12/31 06:00:13;;;;;;;3.05;1.70;;;;;;;;;;5071522;28;20040;-71
2023/12/31 06:02:40;;;;;;;4.13;1.67;;;;;;;;;;5074614;28;20098;-71
2023/12/31 06:05:06;;;;;;;3.05;1.70;;;;;;;;;;5077006;28;20040;-71
2023/12/31 06:07:32;;;;;;;2.58;1.70;;;;;;;;;;5076634;28;20464;-71
2023/12/31 06:09:58;;;;;;;3.72;1.63;;;;;;;;;;5075383;28;20527;-71
2023/12/31 06:12:24;;;;;;;3.45;1.90;;;;;;;;;;5075219;28;20064;-71
2023/12/31 06:14:50;;;;;;;4.47;1.85;;;;;;;;;;5075318;28;20049;-71
2023/12/31 06:17:16;;;;;;;2.95;1.83;;;;;;;;;;5075493;28;20047;-71
2023/12/31 06:19:42;;;;;;;2.83;1.70;;;;;;;;;;5075209;28;20040;-71
2023/12/31 06:22:08;;;;;;;3.47;1.90;;;;;;;;;;5076313;28;20063;-71
2023/12/31 06:24:34;;;;;;;3.30;1.70;;;;;;;;;;5076595;28;20041;-71
2023/12/31 06:27:00;;;;;;;3.92;1.92;;;;;;;;;;5076563;28;20047;-71
2023/12/31 06:29:26;;;;;;;4.60;2.17;;;;;;;;;;5076548;28;20036;-71
2023/12/31 06:31:52;;;;;;;2.78;1.50;;;;;;;;;;5076321;28;20049;-71
2023/12/31 06:34:18;;;;;;;7.28;1.98;;;;;;;;;;5076111;28;20040;-71
2023/12/31 06:36:44;;;;;;;3.70;2.00;;;;;;;;;;5074872;28;20047;-71
2023/12/31 06:39:10;;;;;;;5.05;2.42;;;;;;;;;;5075126;28;20036;-71
2023/12/31 06:41:37;;;;;;;3.63;1.85;;;;;;;;;;5075053;28;20184;-71
2023/12/31 06:44:03;;;;;;;3.78;1.88;;;;;;;;;;5076172;28;20119;-71
2023/12/31 06:46:29;;;;;;;4.30;1.90;;;;;;;;;;5075258;28;20090;-71
2023/12/31 06:48:56;;;;;;;4.07;1.95;;;;;;;;;;5075796;28;20052;-71
2023/12/31 06:51:22;;;;;;;4.50;2.15;;;;;;;;;;5074521;28;20485;-71
2023/12/31 06:53:49;;;;;;;4.28;1.90;;;;;;;;;;5075996;28;20036;-71
2023/12/31 06:56:18;;;;;;;3.28;1.90;;;;;;;;;;5074519;28;20512;-71
2023/12/31 06:58:44;;;;;;;2.92;2.05;;;;;;;;;;5074444;28;20037;-71
2023/12/31 07:01:10;;;;;;;2.85;1.83;;;;;;;;;;5074451;28;20097;-71
2023/12/31 07:03:36;;;;;;;5.40;2.13;;;;;;;;;;5075524;28;20123;-71
2023/12/31 07:06:02;;;;;;;4.03;1.90;;;;;;;;;;5074311;28;20052;-71
2023/12/31 07:08:28;;;;;;;3.22;2.15;;;;;;;;;;5075522;28;20505;-71
2023/12/31 07:10:54;;;;;;;3.78;1.90;;;;;;;;;;5075733;28;20087;-71
2023/12/31 07:13:20;;;;;;;3.35;1.83;;;;;;;;;;5072915;28;20405;-71
2023/12/31 07:15:46;;;;;;;2.72;1.90;;;;;;;;;;5075722;28;20029;-71
2023/12/31 07:18:12;;;;;;;4.78;1.92;;;;;;;;;;5074465;28;20508;-71
2023/12/31 07:20:38;;;;;;;2.88;1.98;;;;;;;;;;5074369;28;20044;-71
2023/12/31 07:23:04;;;;;;;2.45;1.80;;;;;;;;;;5075157;28;20516;-71
2023/12/31 07:25:32;;;;;;;3.65;2.00;;;;;;;;;;5075503;28;20044;-71
2023/12/31 07:27:58;;;;;;;3.83;2.10;;;;;;;;;;5073982;28;20048;-71
2023/12/31 07:30:25;;;;;;;3.83;1.85;;;;;;;;;;5073819;28;20500;-71
2023/12/31 07:32:51;;;;;;;3.88;1.90;;;;;;;;;;5074960;28;20503;-71
2023/12/31 07:35:17;;;;;;;3.90;2.03;;;;;;;;;;5074162;28;20102;-71
2023/12/31 07:37:43;;;;;;;3.00;1.92;;;;;;;;;;5075273;28;20055;-71
2023/12/31 07:40:10;;;;;;;3.28;2.30;;;;;;;;;;5073683;28;20044;-71
2023/12/31 07:42:39;;;;;;;3.17;1.88;;;;;;;;;;5073642;28;20075;-71
2023/12/31 07:45:06;;;;;;;3.58;2.17;;;;;;;;;;5073628;28;20037;-71
2023/12/31 07:47:35;;;;;;;4.35;1.80;;;;;;;;;;5075064;28;20116;-71
2023/12/31 07:50:02;;;;;;;3.10;1.73;;;;;;;;;;5074754;28;20512;-71
2023/12/31 07:52:28;;;;;;;2.47;1.80;;;;;;;;;;5074836;28;20045;-71
2023/12/31 07:54:54;;;;;;;3.50;1.75;;;;;;;;;;5073704;28;20044;-71
2023/12/31 07:57:20;;;;;;;3.88;1.85;;;;;;;;;;5074890;28;20393;-71
2023/12/31 07:59:46;;;;;;;3.25;2.10;;;;;;;;;;5074860;28;20033;-71
2023/12/31 08:02:13;;;;;;;5.78;2.38;;;;;;;;;;5074568;28;20036;-71
2023/12/31 08:04:39;;;;;;;3.40;1.80;;;;;;;;;;5073269;28;20080;-71
2023/12/31 08:07:05;;;;;;;4.18;2.08;;;;;;;;;;5074672;28;20072;-71
2023/12/31 08:09:31;;;;;;;2.90;1.75;;;;;;;;;;5074627;28;20040;-72
2023/12/31 08:11:57;;;;;;;3.33;1.65;;;;;;;;;;5072915;28;20040;-71
2023/12/31 08:14:23;;;;;;;3.13;1.90;;;;;;;;;;5056341;28;20064;-70
2023/12/31 08:16:50;;;;;;;2.80;1.90;;;;;;;;;;5072990;28;20050;-71
2023/12/31 08:19:16;;;;;;;5.05;1.90;;;;;;;;;;5073447;28;20047;-71
2023/12/31 08:21:42;;;;;;;3.83;1.92;;;;;;;;;;5072865;28;20047;-71
2023/12/31 08:24:08;;;;;;;3.55;2.10;;;;;;;;;;5072912;28;20119;-71
2023/12/31 08:26:35;;;;;;;3.58;1.85;;;;;;;;;;5074264;28;20040;-71
2023/12/31 08:29:02;;;;;;;3.22;2.05;;;;;;;;;;5073118;28;20044;-71
2023/12/31 08:31:28;;;;;;;2.45;1.50;;;;;;;;;;5072633;28;20072;-71
2023/12/31 08:33:54;;;;;;;4.00;1.90;;;;;;;;;;5072556;28;20032;-71
2023/12/31 08:36:20;;;;;;;3.70;1.98;;;;;;;;;;5072613;28;20036;-71
2023/12/31 08:38:46;;;;;;;3.83;2.15;;;;;;;;;;5072535;28;20516;-72
2023/12/31 08:41:12;;;;;;;2.67;1.83;;;;;;;;;;5056246;28;20049;-72
2023/12/31 08:43:38;;;;;;;2.85;2.00;;;;;;;;;;5073854;28;20093;-71
2023/12/31 08:46:04;;;;;;;3.00;1.63;;;;;;;;;;5055853;28;20127;-71
2023/12/31 08:48:30;;;;;;;4.07;1.88;;;;;;;;;;5073922;28;20063;-71
2023/12/31 08:50:56;;;;;;;3.50;2.15;;;;;;;;;;5072499;28;20066;-71
2023/12/31 08:53:22;;;;;;;3.72;2.00;;;;;;;;;;5073720;28;20041;-71
2023/12/31 08:55:50;;;;;;;4.15;2.10;;;;;;;;;;5072259;28;20048;-71
2023/12/31 08:58:16;;;;;;;3.65;1.95;;;;;;;;;;5072273;28;20040;-71
2023/12/31 09:00:42;;;;;;;4.13;1.98;;;;;;;;;;5072246;28;20150;-71
2023/12/31 09:03:08;;;;;;;3.55;2.10;;;;;;;;;;5072324;28;20087;-73
2023/12/31 09:05:34;;;;;;;3.85;1.92;;;;;;;;;;5072577;28;20050;-71
2023/12/31 09:08:02;;;;;;;3.97;2.13;;;;;;;;;;5072212;28;20477;-71
2023/12/31 09:10:28;;;;;;;3.08;2.20;;;;;;;;;;5072226;28;20053;-71
2023/12/31 09:12:54;;;;;;;3.15;2.13;;;;;;;;;;5072626;28;20064;-71
2023/12/31 09:15:20;;;;;;;4.50;2.03;;;;;;;;;;5072283;28;20036;-71
2023/12/31 09:17:46;;;;;;;4.00;2.15;;;;;;;;;;5073479;28;20035;-72
2023/12/31 09:20:13;;;;;;;4.35;1.58;;;;;;;;;;5071933;28;20134;-72
2023/12/31 09:22:39;;;;;;;4.30;2.15;;;;;;;;;;5071866;28;20578;-71
2023/12/31 09:25:08;;;;;;;4.35;1.95;;;;;;;;;;5071886;28;20042;-72
2023/12/31 09:27:35;;;;;;;3.85;2.10;;;;;;;;;;5072426;28;20036;-71
2023/12/31 09:30:01;;;;;;;3.08;2.10;;;;;;;;;;5072305;28;20044;-71
2023/12/31 09:32:27;;;;;;;4.10;1.98;;;;;;;;;;5071968;28;20052;-71
2023/12/31 09:34:53;;;;;;;4.80;2.10;;;;;;;;;;5073321;28;20036;-71
2023/12/31 09:37:19;;;;;;;3.30;1.90;;;;;;;;;;5071026;28;20101;-71
2023/12/31 09:39:48;;;;;;;4.28;2.28;;;;;;;;;;5054955;28;20455;-71
2023/12/31 09:42:18;;;;;;;4.40;2.20;;;;;;;;;;5071623;28;20083;-71
2023/12/31 09:44:44;;;;;;;3.45;1.98;;;;;;;;;;5072212;28;20447;-71
2023/12/31 09:47:11;;;;;;;4.18;2.28;;;;;;;;;;5071946;28;20036;-71
2023/12/31 09:49:37;;;;;;;4.15;2.22;;;;;;;;;;5073137;28;20093;-71
2023/12/31 09:52:04;;;;;;;3.65;2.03;;;;;;;;;;5073017;28;20044;-71
2023/12/31 09:54:33;;;;;;;5.65;2.83;;;;;;;;;;5073617;28;20377;-71
2023/12/31 09:56:59;;;;;;;2.95;2.05;;;;;;;;;;5071840;28;20119;-71
2023/12/31 09:59:27;;;;;;;3.08;2.00;;;;;;;;;;5071865;28;20033;-71
2023/12/31 10:01:59;;;;;;;5.60;2.13;;;;;;;;;;5071428;28;20045;-70
2023/12/31 10:04:25;;;;;;;3.05;2.20;;;;;;;;;;5073048;28;20134;-71
2023/12/31 10:06:51;;;;;;;2.75;2.03;;;;;;;;;;5072151;28;20441;-71
2023/12/31 10:09:23;;;;;;;4.38;2.10;;;;;;;;;;5072975;28;20044;-71
2023/12/31 10:11:49;;;;;;;3.28;2.28;;;;;;;;;;5072885;28;20115;-71
2023/12/31 10:14:16;;;;;;;3.75;2.55;;;;;;;;;;5071540;28;20040;-71
2023/12/31 10:16:46;;;;;;;3.70;2.30;;;;;;;;;;5072905;28;20041;-71
2023/12/31 10:19:12;;;;;;;4.72;2.78;;;;;;;;;;5071367;28;20047;-71
2023/12/31 10:21:39;;;;;;;3.92;2.17;;;;;;;;;;5071290;28;20047;-71
2023/12/31 10:24:05;;;;;;;3.97;2.55;;;;;;;;;;5071597;28;20040;-71
2023/12/31 10:26:31;;;;;;;4.13;2.53;;;;;;;;;;5071253;28;20123;-71
2023/12/31 10:28:58;;;;;;;3.63;2.25;;;;;;;;;;5072789;28;20036;-71
2023/12/31 10:31:30;;;;;;;4.20;2.80;;;;;;;;;;5071531;28;20048;-71
2023/12/31 10:33:56;;;;;;;5.87;3.37;;;;;;;;;;5071207;28;20040;-71
2023/12/31 10:36:25;;;;;;;3.90;2.75;;;;;;;;;;5071196;28;20290;-71
2023/12/31 10:38:52;;;;;;;7.70;2.80;;;;;;;;;;5071700;28;20044;-71
2023/12/31 10:41:24;;;;;;;6.28;2.88;;;;;;;;;;5071436;28;20060;-71
2023/12/31 10:43:51;;;;;;;4.50;2.77;;;;;;;;;;5071108;28;20056;-71
2023/12/31 10:46:18;;;;;;;5.63;2.40;;;;;;;;;;5071088;28;20056;-71
2023/12/31 10:48:50;;;;;;;4.57;2.53;;;;;;;;;;5075469;28;20485;-71
2023/12/31 10:51:22;;;;;;;7.40;2.72;;;;;;;;;;5076052;28;20086;-71
2023/12/31 10:53:50;;;;;;;5.13;3.72;;;;;;;;;;5074777;28;20062;-71
2023/12/31 10:56:17;;;;;;;5.93;3.50;;;;;;;;;;5074822;28;20041;-71
2023/12/31 10:58:44;;;;;;;4.13;2.70;;;;;;;;;;5074403;28;20041;-71
2023/12/31 11:01:10;;;;;;;4.05;2.67;;;;;;;;;;5074650;28;20040;-71
2023/12/31 11:03:37;;;;;;;4.45;2.80;;;;;;;;;;5075427;28;20489;-71
2023/12/31 11:06:03;;;;;;;5.45;2.85;;;;;;;;;;5074622;28;20059;-71
2023/12/31 11:08:29;;;;;;;3.83;2.85;;;;;;;;;;5074335;28;20037;-71
2023/12/31 11:10:55;;;;;;;4.68;3.13;;;;;;;;;;5075747;28;20044;-71
2023/12/31 11:13:22;;;;;;;4.20;3.15;;;;;;;;;;5075663;28;20139;-71
2023/12/31 11:15:50;;;;;;;5.35;3.10;;;;;;;;;;5075387;28;20527;-71
2023/12/31 11:18:25;;;;;;;4.72;2.72;;;;;;;;;;5074140;28;20076;-71
2023/12/31 11:20:52;;;;;;;3.58;2.70;;;;;;;;;;5057433;28;20044;-71
2023/12/31 11:23:18;;;;;;;5.43;3.13;;;;;;;;;;5073966;28;20040;-71
2023/12/31 11:25:47;;;;;;;4.00;2.72;;;;;;;;;;5074297;28;20040;-71
2023/12/31 11:28:13;;;;;;;6.07;2.95;;;;;;;;;;5074013;28;20042;-71
2023/12/31 11:30:58;;;;;;;3.65;2.10;;;;;;;;;;5075368;28;20058;-71
2023/12/31 11:33:28;;;;;;;4.28;2.53;;;;;;;;;;5075002;28;20443;-71
2023/12/31 11:35:57;;;;;;;9.88;5.43;;;;;;;;;;5074191;28;20068;-71
2023/12/31 11:38:23;;;;;;;4.85;2.60;;;;;;;;;;5073756;28;20044;-71
2023/12/31 11:40:49;;;;;;;6.70;4.28;;;;;;;;;;5075231;28;20032;-71
2023/12/31 11:43:16;;;;;;;6.68;3.10;;;;;;;;;;5075125;28;20040;-71
2023/12/31 11:45:43;;;;;;;3.47;1.63;;;;;;;;;;5074141;28;20056;-71
2023/12/31 11:48:24;;;;;;;5.18;2.00;;;;;;;;;;5075257;28;20048;-71
2023/12/31 11:50:51;;;;;;;2.97;1.67;;;;;;;;;;5074703;28;20489;-71
2023/12/31 11:53:17;;;;;;;3.30;1.30;;;;;;;;;;5073394;28;20090;-71
2023/12/31 11:55:43;;;;;;;1.85;0.85;;;;;;;;;;5074921;28;20043;-71
2023/12/31 11:58:09;;;;;;;1.45;0.60;;;;;;;;;;5073624;28;20127;-71
2023/12/31 12:00:36;;;;;;;5.88;2.72;;;;;;;;;;5072830;28;20040;-71
2023/12/31 12:03:02;;;;;;;7.03;4.47;;;;;;;;;;5072972;28;20069;-71
2023/12/31 12:05:28;;;;;;;4.88;2.15;;;;;;;;;;5073485;28;20032;-71
2023/12/31 12:07:54;;;;;;;2.80;1.35;;;;;;;;;;5074809;28;20386;-71
2023/12/31 12:10:21;;;;;;;2.20;1.00;;;;;;;;;;5073289;28;20040;-73
2023/12/31 12:12:47;;;;;;;4.38;1.10;;;;;;;;;;5073021;28;20119;-71
2023/12/31 12:15:15;;;;;;;1.88;0.73;;;;;;;;;;5073344;28;20135;-70
2023/12/31 12:17:41;;;;;;;1.38;0.80;;;;;;;;;;5072965;28;20084;-71
2023/12/31 12:20:08;;;;;;;4.72;1.70;;;;;;;;;;5074443;28;20037;-71
2023/12/31 12:22:34;;;;;;;2.30;1.23;;;;;;;;;;5073058;28;20566;-71
2023/12/31 12:25:00;;;;;;;2.15;1.00;;;;;;;;;;5074335;28;20040;-71
2023/12/31 12:27:26;;;;;;;4.90;3.58;;;;;;;;;;5073043;28;20051;-71
2023/12/31 12:29:52;;;;;;;2.33;1.50;;;;;;;;;;5073944;28;20049;-71
2023/12/31 12:32:19;;;;;;;4.43;2.00;;;;;;;;;;5072603;28;20072;-71
2023/12/31 12:34:48;;;;;;;1.85;1.08;;;;;;;;;;5056231;28;20033;-71
2023/12/31 12:37:14;;;;;;;1.73;0.85;;;;;;;;;;5072586;28;20037;-71
2023/12/31 12:39:40;;;;;;;3.03;0.93;;;;;;;;;;5072729;28;20041;-71
2023/12/31 12:42:06;;;;;;;1.77;0.80;;;;;;;;;;5072468;28;20041;-70
2023/12/31 12:44:34;;;;;;;2.28;1.20;;;;;;;;;;5074114;28;20048;-70
2023/12/31 12:47:02;;;;;;;2.60;1.30;;;;;;;;;;5072761;28;20048;-71
2023/12/31 12:49:28;;;;;;;2.42;1.20;;;;;;;;;;5072619;28;20047;-71
2023/12/31 12:51:55;;;;;;;2.72;1.08;;;;;;;;;;5072769;28;20045;-71
2023/12/31 12:54:21;;;;;;;3.22;2.00;;;;;;;;;;5072728;28;20066;-71
2023/12/31 12:56:47;;;;;;;3.05;1.38;;;;;;;;;;5072699;28;20090;-71
2023/12/31 12:59:13;;;;;;;1.98;1.20;;;;;;;;;;5072686;28;20485;-71
2023/12/31 13:01:39;;;;;;;2.85;1.60;;;;;;;;;;5072192;28;20067;-71
2023/12/31 13:04:12;;;;;;;3.03;1.67;;;;;;;;;;5072012;28;20044;-71
2023/12/31 13:06:38;;;;;;;4.47;1.77;;;;;;;;;;5072722;28;20063;-71
2023/12/31 13:09:06;;;;;;;3.50;1.95;;;;;;;;;;5073681;28;20127;-72
2023/12/31 13:11:32;;;;;;;3.45;1.95;;;;;;;;;;5071653;28;20055;-71
2023/12/31 13:13:58;;;;;;;2.17;0.90;;;;;;;;;;5055590;28;20037;-71
2023/12/31 13:16:24;;;;;;;4.07;1.30;;;;;;;;;;5073465;28;20543;-71
2023/12/31 13:18:50;;;;;;;4.10;1.30;;;;;;;;;;5073488;28;20115;-71
2023/12/31 13:21:16;;;;;;;4.32;1.35;;;;;;;;;;5073481;28;20052;-71
2023/12/31 13:23:43;;;;;;;5.50;1.35;;;;;;;;;;5071843;28;20048;-71
2023/12/31 13:26:09;;;;;;;2.75;0.73;;;;;;;;;;5071901;28;20131;-71
2023/12/31 13:28:35;;;;;;;3.90;1.02;;;;;;;;;;5073375;28;20071;-71
2023/12/31 13:31:01;;;;;;;4.15;1.02;;;;;;;;;;5071999;28;20044;-71
2023/12/31 13:33:28;;;;;;;1.85;0.75;;;;;;;;;;5071765;28;20403;-71
2023/12/31 13:35:54;;;;;;;4.32;1.30;;;;;;;;;;5073312;28;20036;-71
2023/12/31 13:38:21;;;;;;;5.07;1.15;;;;;;;;;;5073267;28;20515;-71
2023/12/31 13:40:50;;;;;;;6.35;1.48;;;;;;;;;;5072059;28;20040;-70
2023/12/31 13:43:16;;;;;;;4.47;1.10;;;;;;;;;;5071648;28;20472;-70
2023/12/31 13:45:42;;;;;;;5.72;1.15;;;;;;;;;;5071706;28;20076;-71
2023/12/31 13:48:08;;;;;;;5.00;1.20;;;;;;;;;;5071970;28;20076;-71
2023/12/31 13:50:34;;;;;;;3.83;1.10;;;;;;;;;;5073164;28;20047;-72
2023/12/31 13:53:00;;;;;;;9.43;3.15;;;;;;;;;;5071915;28;20036;-71
2023/12/31 13:55:26;;;;;;;7.30;3.95;;;;;;;;;;5071566;28;20036;-71
2023/12/31 13:57:52;;;;;;;6.70;2.90;;;;;;;;;;5071768;28;20050;-72
2023/12/31 14:00:18;;;;;;;9.15;3.67;;;;;;;;;;5071588;28;20037;-71
2023/12/31 14:02:46;;;;;;;8.77;1.90;;;;;;;;;;5072805;28;20052;-71
2023/12/31 14:05:11;;;;;;;7.32;2.17;;;;;;;;;;5071498;28;20496;-71
2023/12/31 14:07:37;;;;;;;8.00;2.70;;;;;;;;;;5073328;28;20048;-71
2023/12/31 14:10:04;;;;;;;7.57;1.70;;;;;;;;;;5071441;28;20037;-71
2023/12/31 14:12:30;;;;;;;6.18;1.80;;;;;;;;;;5072749;28;20052;-71
2023/12/31 14:14:56;;;;;;;6.30;1.27;;;;;;;;;;5071402;28;20033;-71
2023/12/31 14:17:22;;;;;;;5.43;1.60;;;;;;;;;;5071380;28;20033;-71
2023/12/31 14:19:48;;;;;;;7.95;1.40;;;;;;;;;;5071675;28;20486;-71
2023/12/31 14:22:14;;;;;;;8.05;1.60;;;;;;;;;;5071947;28;20047;-72
2023/12/31 14:24:40;;;;;;;4.55;1.60;;;;;;;;;;5076653;28;20036;-71
2023/12/31 14:27:07;;;;;;;7.43;2.40;;;;;;;;;;5076313;28;20516;-71
2023/12/31 14:29:33;;;;;;;6.95;2.95;;;;;;;;;;5075077;28;20052;-71
2023/12/31 14:31:59;;;;;;;7.38;3.00;;;;;;;;;;5074839;28;20044;-71
2023/12/31 14:34:25;;;;;;;5.45;2.30;;;;;;;;;;5075129;28;20082;-70
2023/12/31 14:36:52;;;;;;;6.97;2.40;;;;;;;;;;5075065;28;20047;-71
2023/12/31 14:39:18;;;;;;;4.68;1.80;;;;;;;;;;5076629;28;20036;-71